Terminal Aerodrome Forecast
Issued by NWS

Home | Current Version | Previous Version | Text Only | Print | Product List | Glossary On
Versions: 1 2 3 4 5 6 7 8 9 10 11 12 13 14 15 16 17 18 19 20 21 22 23 24 25 26 27 28 29 30 31 32 33 34 35
000
FTUS45 KGJT 301142
TAFMTJ
TAF
KMTJ 301142Z 3012/3112 13005KT P6SM FEW100
     FM301900 34009KT P6SM VCTS SCT090CB BKN150
     FM310200 13006KT P6SM VCSH SCT090 BKN110
     FM310600 14005KT P6SM BKN110=

USA.gov is the U.S. government's official web portal to all federal, state and local government web resources and services.